createdAt,value
2024-05-09T00:01:07.277Z,9.85
2024-05-09T00:03:37.221Z,9.94
2024-05-09T00:06:07.827Z,9.91
2024-05-09T00:08:37.830Z,9.92
2024-05-09T00:11:07.926Z,9.92
2024-05-09T00:13:37.842Z,9.91
2024-05-09T00:16:10.541Z,9.84
2024-05-09T00:18:40.360Z,9.77
2024-05-09T00:21:10.882Z,9.81
2024-05-09T00:23:40.782Z,9.70
2024-05-09T00:26:10.718Z,9.58
2024-05-09T00:28:40.537Z,9.60
2024-05-09T00:31:13.154Z,9.60
2024-05-09T00:33:43.055Z,9.52
2024-05-09T00:36:12.852Z,9.66
2024-05-09T00:38:42.617Z,9.65
2024-05-09T00:41:12.450Z,9.53
2024-05-09T00:43:42.143Z,9.55
2024-05-09T00:46:14.639Z,9.51
2024-05-09T00:48:44.620Z,9.40
2024-05-09T00:51:14.645Z,9.39
2024-05-09T00:53:44.711Z,9.27
2024-05-09T00:56:14.807Z,9.32
2024-05-09T00:58:45.789Z,9.36
2024-05-09T01:01:23.190Z,9.27
2024-05-09T01:03:53.567Z,9.20
2024-05-09T01:06:24.282Z,9.16
2024-05-09T01:08:54.374Z,9.14
2024-05-09T01:11:24.424Z,9.14
2024-05-09T01:13:54.357Z,9.06
2024-05-09T01:16:26.787Z,9.00
2024-05-09T01:18:56.954Z,8.97
2024-05-09T01:21:27.202Z,8.97
2024-05-09T01:23:59.498Z,8.97
2024-05-09T01:26:29.296Z,8.96
2024-05-09T01:28:59.062Z,8.95
2024-05-09T01:31:29.092Z,8.87
2024-05-09T01:33:58.859Z,8.89
2024-05-09T01:36:28.765Z,8.86
2024-05-09T01:39:01.482Z,8.82
2024-05-09T01:41:31.259Z,8.82
2024-05-09T01:44:00.971Z,8.79
2024-05-09T01:46:30.622Z,8.84
2024-05-09T01:49:19.175Z,8.84
2024-05-09T01:51:48.836Z,8.76
2024-05-09T01:54:21.082Z,8.72
2024-05-09T01:56:50.613Z,8.71
2024-05-09T01:59:20.151Z,8.68
2024-05-09T02:01:56.699Z,8.63
2024-05-09T02:04:27.859Z,8.60
2024-05-09T02:06:57.522Z,8.61
2024-05-09T02:09:29.695Z,8.59
2024-05-09T02:11:59.340Z,8.53
2024-05-09T02:14:29.050Z,8.41
2024-05-09T02:16:58.649Z,8.46
2024-05-09T02:19:28.562Z,8.46
2024-05-09T02:21:58.116Z,8.47
2024-05-09T02:24:30.286Z,8.50
2024-05-09T02:27:00.033Z,8.51
2024-05-09T02:29:29.893Z,8.47
2024-05-09T02:31:59.552Z,8.47
2024-05-09T02:34:29.156Z,8.46
2024-05-09T02:36:58.756Z,8.50
2024-05-09T02:39:28.283Z,8.44
2024-05-09T02:41:57.887Z,8.36
2024-05-09T02:44:25.093Z,8.33
2024-05-09T02:46:54.856Z,8.34
2024-05-09T02:49:22.034Z,8.33
2024-05-09T02:51:51.610Z,8.30
2024-05-09T02:54:18.547Z,8.25
2024-05-09T02:56:50.699Z,8.25
2024-05-09T02:59:17.685Z,8.26
2024-05-09T03:01:47.448Z,8.27
2024-05-09T03:04:14.554Z,8.24
2024-05-09T03:06:44.124Z,8.17
2024-05-09T03:09:11.055Z,8.17
2024-05-09T03:11:40.810Z,8.14
2024-05-09T03:14:10.529Z,8.13
2024-05-09T03:16:40.689Z,8.10
2024-05-09T03:19:07.755Z,8.10
2024-05-09T03:21:40.826Z,8.17
2024-05-09T03:24:07.910Z,8.16
2024-05-09T03:26:37.585Z,8.03
2024-05-09T03:29:04.718Z,7.99
2024-05-09T03:31:37.025Z,7.88
2024-05-09T03:34:04.227Z,7.72
2024-05-09T03:36:34.173Z,7.72
2024-05-09T03:39:03.672Z,7.76
2024-05-09T03:41:33.354Z,7.72
2024-05-09T03:44:02.986Z,7.74
2024-05-09T03:46:30.045Z,7.69
2024-05-09T03:49:02.363Z,7.79
2024-05-09T03:51:29.403Z,7.75
2024-05-09T03:53:59.975Z,7.79
2024-05-09T03:56:27.025Z,7.73
2024-05-09T03:58:58.087Z,7.76
2024-05-09T04:01:25.515Z,7.90
2024-05-09T04:03:55.264Z,7.98
2024-05-09T04:06:26.173Z,8.15
2024-05-09T04:08:55.895Z,8.26
2024-05-09T04:11:23.006Z,8.38
2024-05-09T04:13:52.708Z,8.64
2024-05-09T04:16:19.714Z,8.90
2024-05-09T04:18:49.505Z,9.15
2024-05-09T04:21:18.181Z,9.44
2024-05-09T04:23:50.448Z,9.71
2024-05-09T04:26:17.511Z,9.98
2024-05-09T04:28:47.178Z,10.19
2024-05-09T04:31:14.608Z,10.33
2024-05-09T04:33:44.356Z,10.64
2024-05-09T04:36:11.444Z,10.86
2024-05-09T04:38:41.035Z,11.20
2024-05-09T04:41:10.678Z,11.51
2024-05-09T04:43:40.266Z,11.71
2024-05-09T04:46:07.207Z,11.75
2024-05-09T04:48:36.873Z,11.84
2024-05-09T04:51:04.246Z,11.90
2024-05-09T04:53:33.974Z,11.93
2024-05-09T04:56:01.027Z,12.21
2024-05-09T04:58:33.141Z,12.44
2024-05-09T05:01:00.987Z,12.62
2024-05-09T05:03:30.707Z,12.68
2024-05-09T05:05:57.985Z,12.63
2024-05-09T05:08:27.675Z,12.44
2024-05-09T05:10:54.747Z,12.37
2024-05-09T05:13:25.232Z,12.32
2024-05-09T05:15:57.239Z,12.20
2024-05-09T05:18:28.608Z,12.07
2024-05-09T05:20:56.577Z,12.06
2024-05-09T05:23:27.013Z,11.89
2024-05-09T05:25:54.859Z,11.94
2024-05-09T05:28:24.748Z,12.02
2024-05-09T05:30:54.272Z,12.06
2024-05-09T05:33:24.494Z,11.95
2024-05-09T05:35:51.563Z,11.99
2024-05-09T05:38:24.954Z,11.82
2024-05-09T05:40:54.466Z,11.83
2024-05-09T05:43:24.196Z,12.05
2024-05-09T05:45:51.148Z,12.31
2024-05-09T05:48:23.673Z,12.33
2024-05-09T05:50:50.763Z,12.02
2024-05-09T05:53:20.338Z,11.95
2024-05-09T05:55:47.436Z,11.87
2024-05-09T05:58:17.105Z,11.87
2024-05-09T06:00:44.596Z,11.94
2024-05-09T06:03:14.959Z,12.24
2024-05-09T06:05:45.928Z,12.36
2024-05-09T06:08:15.829Z,12.39
2024-05-09T06:10:43.034Z,12.55
2024-05-09T06:13:13.837Z,12.53
2024-05-09T06:15:41.853Z,12.55
2024-05-09T06:18:12.813Z,12.82
2024-05-09T06:20:41.886Z,13.04
2024-05-09T06:23:15.177Z,13.27
2024-05-09T06:25:42.795Z,13.55
2024-05-09T06:28:12.555Z,13.85
2024-05-09T06:30:42.417Z,13.93
2024-05-09T06:33:15.731Z,13.90
2024-05-09T06:35:44.057Z,13.91
2024-05-09T06:38:16.703Z,13.98
2024-05-09T06:40:44.560Z,14.04
2024-05-09T06:43:16.916Z,14.27
2024-05-09T06:45:46.919Z,14.57
2024-05-09T06:48:17.234Z,14.85
2024-05-09T06:50:44.435Z,15.01
2024-05-09T06:53:17.402Z,15.12
2024-05-09T06:55:44.789Z,14.80
2024-05-09T06:58:14.695Z,14.93
2024-05-09T07:00:42.425Z,14.97
2024-05-09T07:03:14.284Z,14.98
2024-05-09T07:05:44.054Z,15.47
2024-05-09T07:08:17.155Z,15.66
2024-05-09T07:10:44.535Z,15.95
2024-05-09T07:13:16.028Z,15.95
2024-05-09T07:15:43.557Z,16.17
2024-05-09T07:18:15.583Z,16.30
2024-05-09T07:20:43.233Z,16.50
2024-05-09T07:23:13.259Z,16.70
2024-05-09T07:25:43.000Z,16.87
2024-05-09T07:28:14.114Z,17.15
2024-05-09T07:30:41.634Z,17.21
2024-05-09T07:33:12.207Z,16.81
2024-05-09T07:35:39.923Z,16.44
2024-05-09T07:38:11.341Z,16.79
2024-05-09T07:40:39.284Z,17.25
2024-05-09T07:43:14.213Z,17.59
2024-05-09T07:45:50.693Z,17.87
2024-05-09T07:52:38.410Z,18.59
2024-05-09T07:53:49.213Z,18.69
2024-05-09T07:56:22.130Z,18.81
2024-05-09T07:58:56.171Z,19.03
2024-05-09T08:01:27.537Z,19.10
2024-05-09T08:03:55.232Z,19.02
2024-05-09T08:06:26.059Z,19.06
2024-05-09T08:08:53.314Z,19.14
2024-05-09T08:11:23.767Z,19.21
2024-05-09T08:13:53.953Z,19.56
2024-05-09T08:16:23.859Z,19.70
2024-05-09T08:18:50.963Z,19.79
2024-05-09T08:21:20.528Z,19.32
2024-05-09T08:23:47.572Z,19.45
2024-05-09T08:26:17.163Z,19.26
2024-05-09T08:28:44.164Z,18.94
2024-05-09T08:31:16.483Z,19.36
2024-05-09T08:33:44.492Z,19.85
2024-05-09T08:36:14.117Z,19.77
2024-05-09T08:38:41.050Z,20.21
2024-05-09T08:41:10.736Z,20.57
2024-05-09T08:43:40.679Z,20.70
2024-05-09T08:46:12.757Z,21.00
2024-05-09T08:48:45.687Z,20.98
2024-05-09T08:51:17.151Z,20.91
2024-05-09T08:53:44.193Z,20.66
2024-05-09T08:56:14.223Z,20.87
2024-05-09T08:58:42.606Z,20.82
2024-05-09T09:01:12.657Z,20.84
2024-05-09T09:03:43.534Z,21.07
2024-05-09T09:06:15.457Z,20.91
2024-05-09T09:08:43.041Z,20.71
2024-05-09T09:11:13.520Z,20.84
2024-05-09T09:13:40.510Z,20.86
2024-05-09T09:16:10.687Z,20.71
2024-05-09T09:18:37.906Z,20.96
2024-05-09T09:21:12.890Z,21.30
2024-05-09T09:23:39.918Z,21.64
2024-05-09T09:26:09.696Z,21.85
2024-05-09T09:28:36.842Z,21.95
2024-05-09T09:31:07.177Z,22.11
2024-05-09T09:33:36.173Z,22.02
2024-05-09T09:36:08.396Z,22.07
2024-05-09T09:38:40.576Z,21.78
2024-05-09T09:41:11.665Z,21.87
2024-05-09T09:43:39.887Z,22.07
2024-05-09T09:46:12.780Z,22.27
2024-05-09T09:48:40.623Z,22.19
2024-05-09T09:51:11.102Z,22.20
2024-05-09T09:53:42.460Z,22.24
2024-05-09T09:56:12.778Z,22.17
2024-05-09T09:58:40.443Z,22.27
2024-05-09T10:01:10.276Z,22.21
2024-05-09T10:03:37.695Z,22.50
2024-05-09T10:06:08.790Z,22.92
2024-05-09T10:08:36.639Z,22.88
2024-05-09T10:11:09.137Z,23.09
2024-05-09T10:13:36.449Z,23.43
2024-05-09T10:16:12.148Z,23.42
2024-05-09T10:18:40.748Z,23.51
2024-05-09T10:21:20.435Z,23.53
2024-05-09T10:23:58.176Z,23.38
2024-05-09T10:26:37.761Z,23.56
2024-05-09T10:29:12.217Z,23.18
2024-05-09T10:31:44.212Z,22.73
2024-05-09T10:34:20.200Z,22.84
2024-05-09T10:36:52.292Z,22.69
2024-05-09T10:39:22.837Z,22.60
2024-05-09T10:41:52.620Z,22.91
2024-05-09T10:44:24.081Z,23.07
2024-05-09T10:46:51.328Z,22.91
2024-05-09T10:49:21.204Z,22.72
2024-05-09T10:51:48.751Z,22.75
2024-05-09T10:54:18.635Z,23.15
2024-05-09T10:56:45.592Z,22.97
2024-05-09T10:59:17.930Z,22.85
2024-05-09T11:01:45.015Z,23.13
2024-05-09T11:04:15.029Z,22.92
2024-05-09T11:06:42.929Z,23.28
2024-05-09T11:09:13.211Z,23.46
2024-05-09T11:11:40.489Z,23.70
2024-05-09T11:14:18.677Z,23.69
2024-05-09T11:16:45.742Z,23.51
2024-05-09T11:19:18.605Z,22.54
2024-05-09T11:21:51.055Z,23.00
2024-05-09T11:24:20.931Z,23.08
2024-05-09T11:26:47.975Z,23.61
2024-05-09T11:29:20.125Z,23.64
2024-05-09T11:31:47.973Z,23.84
2024-05-09T11:34:18.085Z,23.99
2024-05-09T11:36:45.280Z,23.33
2024-05-09T11:39:15.257Z,22.66
2024-05-09T11:41:42.447Z,21.78
2024-05-09T11:44:13.110Z,22.22
2024-05-09T11:46:42.849Z,22.67
2024-05-09T11:49:12.845Z,22.74
2024-05-09T11:51:39.980Z,22.30
2024-05-09T11:54:10.086Z,21.66
2024-05-09T11:56:37.313Z,21.48
2024-05-09T11:59:06.811Z,20.90
2024-05-09T12:01:34.066Z,21.13
2024-05-09T12:04:07.008Z,21.18
2024-05-09T12:06:34.202Z,21.70
2024-05-09T12:09:03.806Z,22.03
2024-05-09T12:11:30.817Z,22.56
2024-05-09T12:14:00.480Z,22.78
2024-05-09T12:16:27.509Z,22.63
2024-05-09T12:18:57.404Z,23.22
2024-05-09T12:21:27.640Z,23.24
2024-05-09T12:23:57.241Z,23.34
2024-05-09T12:26:24.411Z,23.62
2024-05-09T12:28:53.985Z,23.60
2024-05-09T12:31:21.022Z,23.63
2024-05-09T12:33:50.721Z,23.42
2024-05-09T12:36:17.956Z,22.75
2024-05-09T12:38:50.429Z,22.88
2024-05-09T12:41:17.463Z,22.56
2024-05-09T12:43:47.098Z,22.62
2024-05-09T12:46:14.476Z,22.69
2024-05-09T12:48:44.313Z,22.72
2024-05-09T12:51:11.497Z,22.57
2024-05-09T12:53:41.116Z,22.41
2024-05-09T12:56:10.947Z,22.23
2024-05-09T12:58:40.983Z,22.26
2024-05-09T13:01:07.981Z,22.55
2024-05-09T13:03:37.758Z,23.03
2024-05-09T13:06:05.240Z,22.95
2024-05-09T13:08:34.907Z,22.87
2024-05-09T13:11:01.905Z,23.02
2024-05-09T13:13:34.056Z,23.16
2024-05-09T13:16:01.039Z,23.02
2024-05-09T13:18:30.806Z,23.13
2024-05-09T13:20:57.821Z,23.27
2024-05-09T13:23:27.313Z,22.82
2024-05-09T13:25:54.646Z,22.58
2024-05-09T13:28:24.491Z,22.69
2024-05-09T13:30:54.251Z,22.90
2024-05-09T13:33:24.280Z,22.87
2024-05-09T13:35:51.522Z,22.96
2024-05-09T13:38:21.889Z,23.12
2024-05-09T13:40:49.986Z,22.70
2024-05-09T13:43:21.835Z,22.72
2024-05-09T13:45:49.378Z,23.11
2024-05-09T13:48:21.757Z,23.14
2024-05-09T13:50:48.902Z,23.18
2024-05-09T13:53:18.585Z,23.26
2024-05-09T13:55:45.691Z,23.38
2024-05-09T13:58:15.995Z,23.50
2024-05-09T14:00:47.959Z,23.47
2024-05-09T14:03:22.011Z,23.29
2024-05-09T14:05:50.902Z,23.11
2024-05-09T14:08:22.323Z,22.86
2024-05-09T14:10:50.817Z,22.66
2024-05-09T14:13:20.631Z,23.06
2024-05-09T14:15:48.031Z,23.29
2024-05-09T14:18:17.843Z,23.20
2024-05-09T14:20:47.518Z,23.23
2024-05-09T14:23:17.770Z,22.87
2024-05-09T14:25:46.585Z,23.17
2024-05-09T14:28:19.050Z,23.24
2024-05-09T14:30:46.682Z,23.12
2024-05-09T14:33:20.576Z,23.13
2024-05-09T14:35:50.275Z,23.17
2024-05-09T14:38:19.834Z,23.05
2024-05-09T14:40:46.908Z,22.99
2024-05-09T14:43:17.695Z,23.00
2024-05-09T14:45:45.119Z,22.86
2024-05-09T14:48:17.079Z,22.83
2024-05-09T14:50:46.860Z,23.13
2024-05-09T14:53:16.330Z,23.19
2024-05-09T14:55:45.962Z,22.97
2024-05-09T14:58:13.643Z,23.04
2024-05-09T15:00:48.513Z,23.19
2024-05-09T15:03:18.752Z,23.14
2024-05-09T15:05:49.683Z,22.86
2024-05-09T15:08:20.325Z,22.57
2024-05-09T15:10:50.977Z,22.42
2024-05-09T15:13:18.567Z,22.21
2024-05-09T15:15:48.581Z,22.34
2024-05-09T15:18:16.397Z,22.44
2024-05-09T15:20:46.755Z,22.32
2024-05-09T15:23:13.992Z,22.40
2024-05-09T15:25:47.425Z,22.51
2024-05-09T15:28:14.621Z,22.73
2024-05-09T15:30:46.490Z,22.82
2024-05-09T15:33:14.385Z,22.55
2024-05-09T15:35:46.223Z,22.70
2024-05-09T15:38:14.593Z,22.66
2024-05-09T15:40:47.063Z,22.79
2024-05-09T15:43:14.451Z,22.67
2024-05-09T15:45:45.013Z,22.65
2024-05-09T15:48:12.478Z,22.62
2024-05-09T15:50:42.878Z,22.55
2024-05-09T15:53:12.191Z,22.48
2024-05-09T15:55:42.739Z,22.41
2024-05-09T15:58:13.164Z,22.57
2024-05-09T16:00:46.284Z,22.71
2024-05-09T16:03:15.647Z,22.67
2024-05-09T16:05:47.599Z,22.65
2024-05-09T16:08:15.843Z,22.56
2024-05-09T16:10:46.443Z,22.07
2024-05-09T16:13:17.634Z,22.11
2024-05-09T16:15:48.313Z,22.05
2024-05-09T16:18:15.813Z,22.09
2024-05-09T16:20:49.228Z,22.03
2024-05-09T16:23:17.326Z,22.07
2024-05-09T16:25:48.267Z,22.02
2024-05-09T16:28:18.527Z,21.82
2024-05-09T16:30:48.275Z,21.66
2024-05-09T16:33:15.402Z,21.63
2024-05-09T16:35:44.953Z,21.71
2024-05-09T16:38:12.467Z,21.71
2024-05-09T16:40:42.040Z,21.69
2024-05-09T16:43:10.090Z,21.65
2024-05-09T16:45:45.180Z,21.34
2024-05-09T16:48:14.066Z,21.29
2024-05-09T16:50:44.097Z,21.24
2024-05-09T16:53:11.473Z,21.13
2024-05-09T16:55:41.027Z,21.07
2024-05-09T16:58:08.648Z,21.07
2024-05-09T17:00:42.364Z,21.08
2024-05-09T17:03:15.212Z,20.84
2024-05-09T17:05:47.257Z,20.67
2024-05-09T17:08:15.778Z,20.68
2024-05-09T17:10:45.543Z,20.69
2024-05-09T17:13:15.211Z,20.60
2024-05-09T17:15:44.861Z,20.42
2024-05-09T17:18:17.270Z,20.49
2024-05-09T17:20:46.830Z,20.55
2024-05-09T17:23:14.443Z,20.57
2024-05-09T17:25:45.062Z,20.55
2024-05-09T17:28:12.568Z,20.47
2024-05-09T17:30:42.986Z,20.50
2024-05-09T17:33:12.837Z,20.44
2024-05-09T17:35:46.107Z,20.36
2024-05-09T17:38:13.376Z,20.30
2024-05-09T17:40:43.550Z,20.10
2024-05-09T17:43:11.180Z,19.92
2024-05-09T17:45:41.878Z,19.87
2024-05-09T17:48:10.382Z,19.79
2024-05-09T17:50:41.850Z,19.76
2024-05-09T17:53:11.844Z,19.74
2024-05-09T17:55:42.594Z,19.64
2024-05-09T17:58:10.176Z,19.63
2024-05-09T18:00:42.168Z,19.54
2024-05-09T18:03:12.042Z,19.40
2024-05-09T18:05:44.415Z,19.37
2024-05-09T18:08:14.921Z,19.23
2024-05-09T18:10:44.867Z,19.06
2024-05-09T18:13:12.939Z,19.11
2024-05-09T18:15:42.804Z,19.07
2024-05-09T18:18:11.157Z,19.07
2024-05-09T18:20:44.798Z,19.12
2024-05-09T18:23:18.166Z,19.04
2024-05-09T18:25:48.742Z,18.96
2024-05-09T18:28:16.940Z,18.84
2024-05-09T18:30:47.705Z,18.79
2024-05-09T18:33:15.060Z,18.69
2024-05-09T18:35:45.795Z,18.63
2024-05-09T18:38:15.581Z,18.60
2024-05-09T18:40:48.304Z,18.55
2024-05-09T18:43:16.680Z,18.49
2024-05-09T18:45:49.118Z,18.39
2024-05-09T18:48:16.510Z,18.34
2024-05-09T18:50:46.422Z,18.24
2024-05-09T18:53:16.248Z,18.18
2024-05-09T18:55:45.863Z,18.19
2024-05-09T18:58:13.092Z,18.10
2024-05-09T19:00:45.407Z,18.05
2024-05-09T19:03:17.911Z,17.98
2024-05-09T19:05:46.435Z,17.87
2024-05-09T19:08:19.115Z,17.79
2024-05-09T19:10:46.556Z,17.77
2024-05-09T19:13:16.621Z,17.63
2024-05-09T19:15:44.507Z,17.62
2024-05-09T19:18:15.444Z,17.60
2024-05-09T19:20:43.390Z,17.42
2024-05-09T19:23:14.035Z,17.35
2024-05-09T19:25:43.561Z,17.38
2024-05-09T19:28:13.126Z,17.40
2024-05-09T19:30:42.451Z,17.27
2024-05-09T19:33:14.187Z,17.25
2024-05-09T19:35:41.814Z,17.21
2024-05-09T19:38:11.718Z,17.19
2024-05-09T19:40:39.082Z,17.20
2024-05-09T19:43:11.777Z,17.15
2024-05-09T19:45:39.211Z,17.11
2024-05-09T19:48:09.980Z,17.01
2024-05-09T19:50:42.533Z,16.94
2024-05-09T19:53:14.439Z,16.88
2024-05-09T19:55:42.550Z,16.87
2024-05-09T19:58:14.834Z,16.81
2024-05-09T20:00:43.673Z,16.82
2024-05-09T20:03:15.562Z,16.76
2024-05-09T20:05:45.016Z,16.67
2024-05-09T20:08:15.055Z,16.49
2024-05-09T20:10:42.386Z,16.38
2024-05-09T20:13:12.633Z,16.32
2024-05-09T20:15:42.590Z,16.22
2024-05-09T20:18:12.302Z,16.25
2024-05-09T20:20:42.532Z,16.18
2024-05-09T20:23:13.747Z,16.07
2024-05-09T20:25:41.540Z,15.94
2024-05-09T20:28:11.472Z,15.87
2024-05-09T20:30:38.891Z,15.85
2024-05-09T20:33:12.686Z,15.73
2024-05-09T20:35:40.060Z,15.66
2024-05-09T20:38:10.039Z,15.51
2024-05-09T20:40:39.200Z,15.43
2024-05-09T20:43:11.003Z,15.36
2024-05-09T20:45:38.410Z,15.43
2024-05-09T20:48:12.171Z,15.26
2024-05-09T20:50:41.801Z,15.33
2024-05-09T20:53:14.627Z,15.16
2024-05-09T20:55:42.732Z,15.39
2024-05-09T20:58:12.969Z,15.15
2024-05-09T21:00:43.802Z,15.08
2024-05-09T21:03:18.365Z,14.98
2024-05-09T21:05:46.391Z,14.79
2024-05-09T21:08:16.633Z,14.76
2024-05-09T21:10:43.763Z,14.75
2024-05-09T21:13:13.765Z,14.82
2024-05-09T21:15:41.050Z,14.64
2024-05-09T21:18:11.286Z,14.72
2024-05-09T21:20:43.613Z,14.46
2024-05-09T21:23:13.272Z,14.52
2024-05-09T21:25:40.467Z,14.29
2024-05-09T21:28:10.274Z,14.12
2024-05-09T21:30:41.658Z,14.12
2024-05-09T21:33:14.672Z,14.14
2024-05-09T21:35:45.242Z,14.11
2024-05-09T21:38:16.105Z,14.00
2024-05-09T21:40:43.698Z,13.98
2024-05-09T21:43:14.402Z,13.94
2024-05-09T21:45:41.707Z,13.82
2024-05-09T21:48:11.591Z,13.80
2024-05-09T21:50:41.322Z,13.72
2024-05-09T21:53:14.794Z,13.84
2024-05-09T21:55:42.159Z,13.65
2024-05-09T21:58:11.879Z,13.58
2024-05-09T22:00:40.965Z,13.56
2024-05-09T22:03:12.307Z,13.57
2024-05-09T22:05:43.423Z,13.56
2024-05-09T22:08:15.792Z,13.48
2024-05-09T22:10:42.941Z,13.38
2024-05-09T22:13:12.668Z,13.36
2024-05-09T22:15:40.664Z,13.38
2024-05-09T22:18:11.843Z,13.38
2024-05-09T22:20:44.660Z,13.35
2024-05-09T22:23:18.365Z,13.33
2024-05-09T22:25:45.393Z,13.27
2024-05-09T22:28:17.122Z,13.23
2024-05-09T22:30:46.069Z,13.07
2024-05-09T22:33:17.256Z,13.33
2024-05-09T22:35:44.417Z,13.33
2024-05-09T22:38:13.972Z,13.10
2024-05-09T22:40:48.316Z,12.84
2024-05-09T22:43:23.870Z,12.73
2024-05-09T22:45:52.402Z,12.72
2024-05-09T22:48:23.382Z,12.67
2024-05-09T22:50:50.732Z,12.68
2024-05-09T22:53:20.757Z,12.62
2024-05-09T22:55:50.494Z,12.63
2024-05-09T22:58:20.790Z,12.57
2024-05-09T23:00:48.027Z,12.54
2024-05-09T23:03:20.842Z,12.53
2024-05-09T23:05:48.716Z,12.52
2024-05-09T23:08:18.229Z,12.45
2024-05-09T23:10:45.144Z,12.37
2024-05-09T23:13:17.484Z,12.31
2024-05-09T23:15:44.574Z,12.29
2024-05-09T23:18:14.205Z,12.23
2024-05-09T23:20:41.221Z,12.25
2024-05-09T23:23:12.343Z,12.25
2024-05-09T23:25:41.433Z,12.28
2024-05-09T23:28:11.615Z,12.20
2024-05-09T23:30:42.163Z,12.37
2024-05-09T23:33:14.320Z,12.37
2024-05-09T23:35:42.454Z,12.19
2024-05-09T23:38:11.992Z,12.17
2024-05-09T23:40:41.120Z,12.14
2024-05-09T23:43:12.681Z,12.03
2024-05-09T23:45:43.682Z,11.97
2024-05-09T23:48:13.531Z,11.87
2024-05-09T23:50:41.501Z,12.01
2024-05-09T23:53:11.531Z,11.97
2024-05-09T23:55:39.171Z,11.86
2024-05-09T23:58:09.556Z,11.76
